Tropical Cyclones
[Index]
Main Index Home Page Stock Weather Photos Extreme Storms Discussion Storm News and Storm Chasing Reports Tropical Cyclones / Hurricanes / Typhoons Weather Data and Links Wild Fires / Bushfires Weather Observation Techniques Weather Picture Catalogue Tornado Pictures and Reports Stock Video Footage and DVDs for sale
Season 2007-2008 Tropical Cyclone LOLA Track Map
Season 2007-2008 Summaries: [BoM-AU] [JTWC-AU] [JTWC-SIO] [JTWC-SPAC] [JTWC-SH]
<<- Previous TC | JTWC 2007-2008 Season | Next TC ->>

click for intensity scale information  Lat/long Grid: Show Hide

 Date Labels: Show Hide

Joint Typhoon Warning Centre Cyclone Data

Name: LOLA

20 Mar 2008 06:00 UTC to 28 Mar 2008 00:00 UTC

    date/time    lat    long     hPa   cat  kts
2008-03-20 06   15.0    63.6    1004         25          
2008-03-20 12   15.5    62.7    1000         30          
2008-03-20 18   15.5    61.7    1000         30          
2008-03-21 00   15.4    61.0    1000         30          
2008-03-21 06   15.4    60.4    1000         30          
2008-03-21 12   15.6    60.0    1000         30          
2008-03-21 18   15.8    59.7     996         35          
2008-03-22 00   15.8    59.3     996         35          
2008-03-22 06   15.9    58.9     996         35          
2008-03-22 12   16.0    58.5     996         35          
2008-03-22 18   16.1    58.1     996         35          
2008-03-23 00   16.3    57.8     996         35          
2008-03-23 06   16.4    57.4     996         35          
2008-03-23 12   16.5    56.9     996         35          
2008-03-23 18   16.1    56.5    1000         30          
2008-03-24 00   15.6    55.9    1000         30          
2008-03-24 06   15.0    56.0     999         30          
2008-03-24 12   14.8    56.1    1000         30          
2008-03-24 18   14.7    56.3    1000         30          
2008-03-25 00   15.1    56.3    1000         30          
2008-03-25 06   15.5    56.0    1000         30          
2008-03-25 12   15.8    56.4    1000         30          
2008-03-25 18   16.6    56.5    1000         30          
2008-03-26 00   17.7    56.8    1000         30          
2008-03-26 06   18.6    56.8    1000         30          
2008-03-26 12   19.1    57.6    1000         30          
2008-03-26 18   19.7    58.3    1004         25          
2008-03-27 00   20.5    58.5    1004         25          
2008-03-27 06   21.3    58.5    1004         25          
2008-03-27 12   22.1    59.8    1004         25          
2008-03-27 18   23.0    60.5    1004         25          
2008-03-28 00   23.5    61.4    1004         25          
Winds are 1-min average.

Tropical cyclone tracks developed by Michael Bath using data from the Joint Typhoon Warning Centre Best Tracks and Google Maps.


[Australian Severe Weather index] [Copyright Notice] [Email Contacts] [Search This Site] [Privacy Policy]
Document: tropical_cyclone_lola.htm Updated: 28 June 2017